Time;durP1;ratioP1;P1;durP2;ratioP2;P2;SDS_P1;SDS_P2;PMS_P1;PMS_P2;Temp;Humidity;BMP_temperature;BMP_pressure;BME280_temperature;BME280_humidity;BME280_pressure;Samples;Min_cycle;Max_cycle;Signal;HPM_P1;HPM_P2
2023/03/18 00:00:19;;;;;;;6.97;4.53;;;12.00;99.90;;;;;;5050564;28;20029;-37
2023/03/18 00:02:46;;;;;;;7.70;4.13;;;12.00;99.90;;;;;;5057805;28;20033;-37
2023/03/18 00:05:12;;;;;;;7.53;4.70;;;12.00;99.90;;;;;;5068116;28;20091;-37
2023/03/18 00:07:38;;;;;;;6.70;4.55;;;12.00;99.90;;;;;;5071462;28;20068;-36
2023/03/18 00:10:05;;;;;;;8.60;4.18;;;12.00;99.90;;;;;;5055183;28;20437;-37
2023/03/18 00:12:32;;;;;;;6.93;4.72;;;12.00;99.90;;;;;;5070112;28;20473;-37
2023/03/18 00:14:58;;;;;;;6.97;4.53;;;12.00;99.90;;;;;;5066286;28;20132;-37
2023/03/18 00:17:24;;;;;;;7.40;4.53;;;12.00;99.90;;;;;;5067540;28;20417;-37
2023/03/18 00:19:50;;;;;;;6.38;4.45;;;12.00;99.90;;;;;;5063197;28;20033;-37
2023/03/18 00:22:16;;;;;;;7.13;5.10;;;12.00;99.90;;;;;;5073722;28;20072;-37
2023/03/18 00:24:42;;;;;;;8.80;5.07;;;12.00;99.90;;;;;;5062986;28;20173;-37
2023/03/18 00:27:08;;;;;;;5.57;4.40;;;12.00;99.90;;;;;;5073984;28;20123;-37
2023/03/18 00:29:34;;;;;;;6.18;4.50;;;11.90;99.90;;;;;;5061425;28;20045;-37
2023/03/18 00:32:00;;;;;;;6.28;4.93;;;11.90;99.90;;;;;;5082283;28;20071;-37
2023/03/18 00:34:25;;;;;;;8.23;5.05;;;11.90;99.90;;;;;;5072081;28;20480;-38
2023/03/18 00:36:55;;;;;;;6.20;4.70;;;11.90;99.90;;;;;;5067360;28;20102;-37
2023/03/18 00:39:25;;;;;;;7.80;4.70;;;11.90;99.90;;;;;;5078417;28;20387;-36
2023/03/18 00:41:55;;;;;;;6.95;5.15;;;11.90;99.90;;;;;;5062411;28;20039;-37
2023/03/18 00:44:21;;;;;;;7.63;5.43;;;11.90;99.90;;;;;;5070202;28;20049;-37
2023/03/18 00:46:47;;;;;;;8.80;5.53;;;11.80;99.90;;;;;;5064302;28;20085;-37
2023/03/18 00:49:14;;;;;;;7.05;5.57;;;11.80;99.90;;;;;;5077148;28;20036;-35
2023/03/18 00:51:41;;;;;;;10.00;5.80;;;11.80;99.90;;;;;;5072995;28;20029;-37
2023/03/18 00:54:11;;;;;;;7.28;5.57;;;11.80;99.90;;;;;;5062108;28;20389;-36
2023/03/18 00:56:37;;;;;;;7.55;5.43;;;11.70;99.90;;;;;;5083523;28;20040;-37
2023/03/18 00:59:05;;;;;;;9.98;5.35;;;11.70;99.90;;;;;;5060572;28;20401;-37
2023/03/18 01:01:31;;;;;;;5.68;5.07;;;11.70;99.90;;;;;;5075085;28;20051;-37
2023/03/18 01:03:57;;;;;;;8.55;4.95;;;11.70;99.90;;;;;;5072173;28;20123;-36
2023/03/18 01:06:28;;;;;;;6.43;5.32;;;11.70;99.90;;;;;;5064794;28;20160;-37
2023/03/18 01:08:57;;;;;;;6.43;4.50;;;11.60;99.90;;;;;;5067858;28;20039;-37
2023/03/18 01:11:24;;;;;;;5.88;5.20;;;11.60;99.90;;;;;;5066658;28;20427;-37
2023/03/18 01:13:50;;;;;;;9.30;5.22;;;11.50;99.90;;;;;;5080738;28;20036;-37
2023/03/18 01:16:18;;;;;;;9.50;5.50;;;11.50;99.90;;;;;;5074737;28;20389;-37
2023/03/18 01:18:44;;;;;;;7.65;5.00;;;11.50;99.90;;;;;;5084329;28;20107;-37
2023/03/18 01:21:10;;;;;;;7.43;4.90;;;11.40;99.90;;;;;;5063605;28;20044;-37
2023/03/18 01:23:37;;;;;;;8.68;4.97;;;11.40;99.90;;;;;;5061923;28;20115;-37
2023/03/18 01:26:04;;;;;;;8.40;5.53;;;11.30;99.90;;;;;;5072240;28;20041;-37
2023/03/18 01:28:33;;;;;;;7.72;4.53;;;11.30;99.90;;;;;;5060385;28;20033;-37
2023/03/18 01:30:58;;;;;;;8.88;5.45;;;11.20;99.90;;;;;;5069406;28;20556;-37
2023/03/18 01:33:24;;;;;;;8.90;4.88;;;11.20;99.90;;;;;;5067108;28;20072;-37
2023/03/18 01:35:58;;;;;;;5.30;4.80;;;11.10;99.90;;;;;;5068466;28;20028;-36
2023/03/18 01:38:28;;;;;;;6.80;5.15;;;11.10;99.90;;;;;;5072528;28;20116;-38
2023/03/18 01:40:54;;;;;;;8.82;5.20;;;11.10;99.90;;;;;;5064282;28;20485;-37
2023/03/18 01:43:23;;;;;;;7.90;5.20;;;11.00;99.90;;;;;;5070861;28;20037;-37
2023/03/18 01:45:54;;;;;;;10.60;5.75;;;10.90;99.90;;;;;;5074689;28;20032;-37
2023/03/18 01:48:24;;;;;;;9.25;5.70;;;10.90;99.90;;;;;;5079680;28;20481;-36
2023/03/18 01:50:59;;;;;;;6.43;5.80;;;10.80;99.90;;;;;;5080468;28;20039;-38
2023/03/18 01:53:28;;;;;;;9.40;5.40;;;10.80;99.90;;;;;;5080188;28;20036;-37
2023/03/18 01:55:56;;;;;;;7.45;5.60;;;10.70;99.90;;;;;;5066782;28;20091;-37
2023/03/18 01:58:33;;;;;;;6.20;5.50;;;10.60;99.90;;;;;;5069630;28;20033;-37
2023/03/18 02:01:04;;;;;;;7.43;6.03;;;10.60;99.90;;;;;;5077775;28;20051;-37
2023/03/18 02:03:30;;;;;;;9.70;5.70;;;10.50;99.90;;;;;;5074176;28;20063;-37
2023/03/18 02:05:56;;;;;;;7.85;6.18;;;10.50;99.90;;;;;;5082674;28;20040;-36
2023/03/18 02:08:22;;;;;;;6.40;5.55;;;10.50;99.90;;;;;;5064583;28;20711;-37
2023/03/18 02:10:49;;;;;;;8.38;5.55;;;10.50;99.90;;;;;;5067816;28;20036;-37
2023/03/18 02:13:15;;;;;;;8.38;5.90;;;10.40;99.90;;;;;;5077624;28;20474;-37
2023/03/18 02:16:17;;;;;;;10.32;6.55;;;10.40;99.90;;;;;;5082012;28;20178;-37
2023/03/18 02:18:49;;;;;;;8.27;6.32;;;10.40;99.90;;;;;;5045983;28;20140;-37
2023/03/18 02:21:33;;;;;;;11.23;7.00;;;10.30;99.90;;;;;;5063971;28;20116;-35
2023/03/18 02:24:14;;;;;;;8.45;6.70;;;10.30;99.90;;;;;;5057694;28;20056;-35
2023/03/18 02:27:00;;;;;;;7.68;6.75;;;10.30;99.90;;;;;;5063384;28;20131;-37
2023/03/18 02:29:30;;;;;;;8.15;6.07;;;10.30;99.90;;;;;;5061535;28;20076;-36
2023/03/18 02:31:59;;;;;;;8.35;7.10;;;10.30;99.90;;;;;;5073930;28;20076;-37
2023/03/18 02:34:27;;;;;;;8.82;6.95;;;10.30;99.90;;;;;;5060783;28;20033;-38
2023/03/18 02:36:53;;;;;;;9.60;6.47;;;10.20;99.90;;;;;;5078329;28;20128;-37
2023/03/18 02:39:20;;;;;;;12.73;7.30;;;10.20;99.90;;;;;;5074944;28;20551;-37
2023/03/18 02:41:47;;;;;;;8.05;6.38;;;10.20;99.90;;;;;;5062450;28;20033;-37
2023/03/18 02:44:12;;;;;;;7.75;6.57;;;10.20;99.90;;;;;;5068037;28;20061;-37
2023/03/18 02:46:59;;;;;;;10.15;7.93;;;10.20;99.90;;;;;;5066954;28;20075;-37
2023/03/18 02:49:26;;;;;;;10.75;7.78;;;10.20;99.90;;;;;;5068679;28;20123;-37
2023/03/18 02:51:53;;;;;;;11.23;8.30;;;10.20;99.90;;;;;;5076701;28;20046;-37
2023/03/18 02:54:28;;;;;;;9.15;8.23;;;10.20;99.90;;;;;;5076175;28;20075;-36
2023/03/18 02:56:54;;;;;;;13.73;9.15;;;10.20;99.90;;;;;;5061298;28;20501;-37
2023/03/18 02:59:21;;;;;;;11.38;9.48;;;10.20;99.90;;;;;;5062285;28;20486;-37
2023/03/18 03:01:50;;;;;;;14.10;9.63;;;10.20;99.90;;;;;;5078351;28;20068;-37
2023/03/18 03:04:19;;;;;;;10.02;8.95;;;10.20;99.90;;;;;;5070090;28;20049;-37
2023/03/18 03:06:45;;;;;;;11.10;9.27;;;10.20;99.90;;;;;;5078707;28;20028;-37
2023/03/18 03:09:14;;;;;;;12.25;8.88;;;10.20;99.90;;;;;;5064511;28;20128;-37
2023/03/18 03:11:40;;;;;;;10.77;8.43;;;10.20;99.90;;;;;;5083727;28;20037;-37
2023/03/18 03:14:08;;;;;;;12.98;10.13;;;10.10;99.90;;;;;;5079623;28;20097;-37
2023/03/18 03:16:35;;;;;;;14.38;9.82;;;10.10;99.90;;;;;;5069187;28;20045;-37
2023/03/18 03:19:00;;;;;;;12.85;10.32;;;10.10;99.90;;;;;;5069567;28;20086;-37
2023/03/18 03:21:27;;;;;;;14.45;11.55;;;10.10;99.90;;;;;;5071242;28;20113;-36
2023/03/18 03:23:53;;;;;;;14.93;11.45;;;10.00;99.90;;;;;;5078600;28;20544;-37
2023/03/18 03:26:19;;;;;;;13.32;11.93;;;10.00;99.90;;;;;;5059346;28;20033;-36
2023/03/18 03:28:45;;;;;;;13.68;12.35;;;10.00;99.90;;;;;;5069055;28;20035;-37
2023/03/18 03:31:11;;;;;;;16.63;12.32;;;10.00;99.90;;;;;;5070940;28;20040;-36
2023/03/18 03:33:40;;;;;;;12.77;10.38;;;10.00;99.90;;;;;;5074766;28;20029;-37
2023/03/18 03:36:10;;;;;;;12.82;10.65;;;10.00;99.90;;;;;;5082082;28;20393;-37
2023/03/18 03:38:36;;;;;;;13.32;10.00;;;10.00;99.90;;;;;;5073356;28;20393;-37
2023/03/18 03:41:02;;;;;;;13.50;10.43;;;10.00;99.90;;;;;;5067665;28;20040;-36
2023/03/18 03:43:28;;;;;;;14.77;11.13;;;10.00;99.90;;;;;;5066889;28;20115;-37
2023/03/18 03:45:54;;;;;;;15.50;12.35;;;10.10;99.90;;;;;;5069507;28;20044;-36
2023/03/18 03:48:20;;;;;;;14.63;11.25;;;10.10;99.90;;;;;;5067718;28;20036;-37
2023/03/18 03:50:46;;;;;;;12.88;10.95;;;10.10;99.90;;;;;;5072752;28;20036;-37
2023/03/18 03:53:12;;;;;;;13.40;10.43;;;10.10;99.90;;;;;;5062966;28;20065;-36
2023/03/18 03:55:38;;;;;;;11.48;10.02;;;10.10;99.90;;;;;;5063894;28;20417;-36
2023/03/18 03:58:04;;;;;;;11.23;10.02;;;10.10;99.90;;;;;;5069140;28;20110;-37
2023/03/18 04:00:29;;;;;;;12.10;9.98;;;10.00;99.90;;;;;;5078988;28;20119;-36
2023/03/18 04:02:55;;;;;;;11.85;9.88;;;10.00;99.90;;;;;;5071662;28;20032;-37
2023/03/18 04:05:23;;;;;;;13.13;8.98;;;10.00;99.90;;;;;;5074515;28;20033;-36
2023/03/18 04:07:50;;;;;;;11.63;9.90;;;9.90;99.90;;;;;;5064771;28;20040;-37
2023/03/18 04:10:18;;;;;;;10.60;8.93;;;9.90;99.90;;;;;;5078630;28;20040;-37
2023/03/18 04:12:45;;;;;;;12.85;9.45;;;9.90;99.90;;;;;;5077160;28;20114;-37
2023/03/18 04:15:12;;;;;;;11.82;9.80;;;9.90;99.90;;;;;;5078398;28;20119;-37
2023/03/18 04:17:39;;;;;;;13.45;10.07;;;9.80;99.90;;;;;;5076099;28;20113;-37
2023/03/18 04:20:05;;;;;;;11.73;9.48;;;9.80;99.90;;;;;;5079960;28;20044;-37
2023/03/18 04:22:32;;;;;;;11.73;10.48;;;9.80;99.90;;;;;;5079047;28;20036;-37
2023/03/18 04:24:57;;;;;;;12.00;10.00;;;9.70;99.90;;;;;;5072623;28;20232;-36
2023/03/18 04:27:24;;;;;;;13.90;9.77;;;9.60;99.90;;;;;;5067685;28;20143;-36
2023/03/18 04:29:50;;;;;;;11.45;9.30;;;9.60;99.90;;;;;;5071583;28;20089;-37
2023/03/18 04:32:16;;;;;;;12.85;9.68;;;9.60;99.90;;;;;;5084801;28;20036;-36
2023/03/18 04:34:41;;;;;;;13.77;10.40;;;9.60;99.90;;;;;;5077031;28;20651;-36
2023/03/18 04:37:08;;;;;;;11.57;10.38;;;9.60;99.90;;;;;;5068985;28;20139;-37
2023/03/18 04:39:33;;;;;;;13.70;11.32;;;9.50;99.90;;;;;;5069877;28;20055;-37
2023/03/18 04:41:59;;;;;;;13.25;10.38;;;9.50;99.90;;;;;;5067577;28;20561;-36
2023/03/18 04:44:25;;;;;;;11.07;9.65;;;9.50;99.90;;;;;;5070308;28;20036;-36
2023/03/18 04:46:52;;;;;;;13.73;10.27;;;9.50;99.90;;;;;;5077425;28;20117;-36
2023/03/18 04:49:18;;;;;;;12.30;10.02;;;9.40;99.90;;;;;;5066917;28;20451;-37
2023/03/18 04:51:45;;;;;;;13.75;10.98;;;9.40;99.90;;;;;;5080949;28;20067;-37
2023/03/18 04:54:11;;;;;;;14.55;11.40;;;9.50;99.90;;;;;;5063683;28;20461;-37
2023/03/18 04:56:38;;;;;;;13.45;10.77;;;9.40;99.90;;;;;;5072719;28;20068;-37
2023/03/18 04:59:04;;;;;;;16.92;11.73;;;9.40;99.90;;;;;;5078999;28;20110;-36
2023/03/18 05:01:30;;;;;;;14.77;11.35;;;9.40;99.90;;;;;;5070124;28;20532;-37
2023/03/18 05:03:56;;;;;;;12.02;10.13;;;9.50;99.90;;;;;;5069881;28;20048;-36
2023/03/18 05:06:25;;;;;;;14.98;10.77;;;9.50;99.90;;;;;;5070489;28;20410;-37
2023/03/18 05:08:52;;;;;;;13.07;10.13;;;9.50;99.90;;;;;;5060395;28;20051;-37
2023/03/18 05:11:19;;;;;;;14.27;10.77;;;9.50;99.90;;;;;;5075100;28;20112;-37
2023/03/18 05:13:45;;;;;;;12.38;11.00;;;9.50;99.90;;;;;;5064895;28;20061;-37
2023/03/18 05:16:12;;;;;;;12.32;10.73;;;9.50;99.90;;;;;;5071400;28;20093;-37
2023/03/18 05:18:39;;;;;;;12.55;10.25;;;9.50;99.90;;;;;;5076006;28;20111;-37
2023/03/18 05:21:07;;;;;;;15.05;11.02;;;9.50;99.90;;;;;;5061143;28;20046;-37
2023/03/18 05:23:33;;;;;;;12.40;10.20;;;9.50;99.90;;;;;;5071892;28;20033;-37
2023/03/18 05:25:59;;;;;;;12.95;11.05;;;9.60;99.90;;;;;;5070018;28;20075;-36
2023/03/18 05:28:26;;;;;;;14.10;10.77;;;9.60;99.90;;;;;;5057967;28;20065;-36
2023/03/18 05:30:51;;;;;;;11.32;10.13;;;9.50;99.90;;;;;;5081942;28;20047;-36
2023/03/18 05:33:18;;;;;;;15.73;11.52;;;9.50;99.90;;;;;;5063185;28;20044;-37
2023/03/18 05:35:44;;;;;;;14.30;10.95;;;9.60;99.90;;;;;;5067438;28;20036;-37
2023/03/18 05:38:10;;;;;;;13.77;10.40;;;9.60;99.90;;;;;;5075545;28;20036;-36
2023/03/18 05:40:36;;;;;;;15.27;12.02;;;9.60;99.90;;;;;;5067133;28;20483;-36
2023/03/18 05:43:02;;;;;;;14.23;11.57;;;9.60;99.90;;;;;;5079576;28;20127;-34
2023/03/18 05:45:28;;;;;;;12.48;11.18;;;9.60;99.90;;;;;;5073764;28;20037;-34
2023/03/18 05:47:54;;;;;;;15.52;11.13;;;9.70;99.90;;;;;;5064319;28;20161;-35
2023/03/18 05:50:35;;;;;;;14.85;11.88;;;9.70;99.90;;;;;;5068924;28;20047;-35
2023/03/18 05:53:03;;;;;;;14.25;11.45;;;9.60;99.90;;;;;;5068825;28;20047;-36
2023/03/18 05:55:29;;;;;;;13.20;10.75;;;9.70;99.90;;;;;;5081432;28;20048;-36
2023/03/18 05:57:59;;;;;;;13.80;11.20;;;9.60;99.90;;;;;;5063924;28;20071;-36
2023/03/18 06:00:29;;;;;;;14.70;11.40;;;9.70;99.90;;;;;;5064999;28;20481;-35
2023/03/18 06:02:57;;;;;;;18.70;11.55;;;9.60;99.90;;;;;;5035397;28;20048;-35
2023/03/18 06:05:23;;;;;;;14.68;12.27;;;9.70;99.90;;;;;;5055348;28;20120;-36
2023/03/18 06:07:49;;;;;;;14.75;12.02;;;9.70;99.90;;;;;;5058228;28;20036;-36
2023/03/18 06:10:16;;;;;;;15.07;12.27;;;9.70;99.90;;;;;;5056942;28;20538;-36
2023/03/18 06:12:43;;;;;;;13.27;11.55;;;9.70;99.90;;;;;;5066273;28;20425;-35
2023/03/18 06:15:10;;;;;;;16.88;13.05;;;9.70;99.90;;;;;;5053743;28;20087;-36
2023/03/18 06:17:38;;;;;;;15.25;12.73;;;9.80;99.90;;;;;;5061901;28;20086;-36
2023/03/18 06:20:07;;;;;;;13.80;12.20;;;9.80;99.90;;;;;;5059398;28;20082;-35
2023/03/18 06:22:34;;;;;;;14.90;12.27;;;9.80;99.90;;;;;;5063862;28;20490;-35
2023/03/18 06:25:00;;;;;;;16.48;12.55;;;9.80;99.90;;;;;;5064082;28;20047;-35
2023/03/18 06:27:26;;;;;;;13.57;11.90;;;9.90;99.90;;;;;;5064537;28;20048;-35
2023/03/18 06:29:52;;;;;;;17.60;13.10;;;9.90;99.90;;;;;;5052685;28;20045;-36
2023/03/18 06:32:17;;;;;;;13.93;12.02;;;9.90;99.90;;;;;;5064210;28;20378;-35
2023/03/18 06:34:44;;;;;;;17.63;12.82;;;9.90;99.90;;;;;;5048205;28;20187;-35
2023/03/18 06:37:10;;;;;;;20.60;13.57;;;9.90;99.90;;;;;;5064780;28;20098;-36
2023/03/18 06:39:36;;;;;;;18.90;12.60;;;9.90;99.90;;;;;;5058166;28;20036;-36
2023/03/18 06:42:02;;;;;;;23.67;15.23;;;10.00;99.90;;;;;;5059373;28;20049;-36
2023/03/18 06:44:27;;;;;;;18.98;13.90;;;10.10;99.90;;;;;;5055651;28;20352;-36
2023/03/18 06:46:53;;;;;;;17.95;13.52;;;10.10;99.90;;;;;;5054468;28;20115;-36
2023/03/18 06:49:19;;;;;;;18.88;14.43;;;10.10;99.90;;;;;;5061745;28;20037;-35
2023/03/18 06:51:46;;;;;;;14.52;12.95;;;10.20;99.90;;;;;;5057464;28;20075;-35
2023/03/18 06:54:12;;;;;;;14.88;13.05;;;10.20;99.90;;;;;;5052348;28;20508;-36
2023/03/18 06:56:40;;;;;;;15.80;12.57;;;10.20;99.90;;;;;;5060999;28;20029;-35
2023/03/18 06:59:08;;;;;;;18.55;13.27;;;10.30;99.90;;;;;;5060589;28;20049;-36
2023/03/18 07:01:36;;;;;;;15.80;12.95;;;10.30;99.90;;;;;;5064089;28;20051;-35
2023/03/18 07:04:05;;;;;;;18.50;13.68;;;10.40;99.90;;;;;;5055201;28;20044;-36
2023/03/18 07:06:31;;;;;;;17.25;13.15;;;10.40;99.90;;;;;;5061480;28;20048;-35
2023/03/18 07:08:58;;;;;;;16.65;13.40;;;10.40;99.90;;;;;;5059444;28;20037;-36
2023/03/18 07:11:24;;;;;;;18.85;14.00;;;10.40;99.90;;;;;;5056470;28;20115;-36
2023/03/18 07:13:51;;;;;;;17.38;13.65;;;10.40;99.90;;;;;;5060419;28;20119;-35
2023/03/18 07:16:18;;;;;;;16.45;13.45;;;10.50;99.90;;;;;;5055306;28;20036;-36
2023/03/18 07:18:44;;;;;;;20.58;13.93;;;10.50;99.90;;;;;;5056511;28;20111;-35
2023/03/18 07:21:10;;;;;;;17.35;13.60;;;10.50;99.90;;;;;;5060201;28;20124;-35
2023/03/18 07:23:36;;;;;;;16.85;13.55;;;10.50;99.90;;;;;;5060837;28;20402;-36
2023/03/18 07:26:02;;;;;;;17.92;14.23;;;10.50;99.90;;;;;;5060541;28;20040;-36
2023/03/18 07:28:28;;;;;;;18.10;14.80;;;10.50;99.90;;;;;;5057307;28;20037;-35
2023/03/18 07:30:53;;;;;;;16.85;14.07;;;10.50;99.90;;;;;;5050373;28;20490;-36
2023/03/18 07:33:19;;;;;;;18.63;14.60;;;10.60;99.90;;;;;;5058388;28;20045;-35
2023/03/18 07:35:48;;;;;;;18.33;15.40;;;10.60;99.90;;;;;;5060699;28;20036;-35
2023/03/18 07:38:14;;;;;;;21.23;15.38;;;10.60;99.90;;;;;;5060992;28;20441;-35
2023/03/18 07:40:40;;;;;;;22.90;15.45;;;10.60;99.90;;;;;;5061833;28;20044;-36
2023/03/18 07:43:06;;;;;;;21.48;16.23;;;10.50;99.90;;;;;;5061030;28;20040;-36
2023/03/18 07:45:33;;;;;;;21.98;18.17;;;10.50;99.90;;;;;;5062219;28;20041;-36
2023/03/18 07:47:59;;;;;;;25.83;16.42;;;10.50;99.90;;;;;;5069680;28;20044;-36
2023/03/18 07:50:25;;;;;;;21.77;18.05;;;10.50;99.90;;;;;;5070322;28;20041;-36
2023/03/18 07:52:51;;;;;;;25.40;18.27;;;10.40;99.90;;;;;;5062416;28;20060;-35
2023/03/18 07:55:17;;;;;;;23.92;17.48;;;10.50;99.90;;;;;;5065580;28;20123;-36
2023/03/18 07:57:42;;;;;;;22.85;18.42;;;10.40;99.90;;;;;;5077458;28;20064;-36
2023/03/18 08:00:11;;;;;;;25.80;17.80;;;10.40;99.90;;;;;;5070794;28;20097;-36
2023/03/18 08:02:37;;;;;;;24.27;18.95;;;10.50;99.90;;;;;;5072020;28;20041;-36
2023/03/18 08:05:05;;;;;;;27.67;21.55;;;10.60;99.90;;;;;;5077239;28;20529;-36
2023/03/18 08:07:33;;;;;;;27.67;21.90;;;10.70;99.90;;;;;;5077365;28;20486;-36
2023/03/18 08:10:00;;;;;;;26.23;20.90;;;10.80;99.90;;;;;;5070767;28;20060;-36
2023/03/18 08:12:26;;;;;;;25.30;20.85;;;10.80;99.90;;;;;;5055003;28;20040;-36
2023/03/18 08:14:52;;;;;;;28.55;21.25;;;10.80;99.90;;;;;;5071015;28;20508;-36
2023/03/18 08:17:18;;;;;;;26.50;20.98;;;10.90;99.90;;;;;;5058840;28;20068;-36
2023/03/18 08:19:43;;;;;;;27.30;20.05;;;11.00;99.90;;;;;;5078901;28;20112;-36
2023/03/18 08:22:10;;;;;;;29.55;21.55;;;11.10;99.90;;;;;;5060346;28;20052;-36
2023/03/18 08:24:37;;;;;;;29.42;21.88;;;11.20;99.90;;;;;;5078386;28;20036;-36
2023/03/18 08:27:04;;;;;;;30.40;21.55;;;11.30;99.90;;;;;;5071116;28;20059;-36
2023/03/18 08:29:30;;;;;;;28.55;21.55;;;11.50;99.90;;;;;;5073021;28;20076;-36
2023/03/18 08:31:56;;;;;;;27.05;22.38;;;11.60;99.90;;;;;;5065068;28;20048;-36
2023/03/18 08:34:22;;;;;;;31.15;22.23;;;11.70;99.90;;;;;;5059317;28;20089;-36
2023/03/18 08:36:48;;;;;;;26.58;21.05;;;11.90;99.90;;;;;;5079327;28;20493;-36
2023/03/18 08:39:14;;;;;;;24.75;20.73;;;12.00;99.90;;;;;;5074932;28;20039;-36
2023/03/18 08:41:40;;;;;;;29.60;22.00;;;12.30;99.90;;;;;;5056230;28;20036;-36
2023/03/18 08:44:09;;;;;;;25.98;20.02;;;12.60;99.90;;;;;;5073728;28;20499;-36
2023/03/18 08:46:36;;;;;;;27.63;21.65;;;12.90;99.90;;;;;;5074538;28;20133;-36
2023/03/18 08:49:02;;;;;;;24.20;19.67;;;13.50;99.90;;;;;;5069907;28;20045;-36
2023/03/18 08:51:28;;;;;;;23.38;18.88;;;14.00;99.90;;;;;;5060583;28;20140;-37
2023/03/18 08:53:54;;;;;;;21.77;18.85;;;14.20;99.90;;;;;;5067989;28;20039;-36
2023/03/18 08:56:21;;;;;;;24.33;18.17;;;14.20;99.90;;;;;;5064883;28;20037;-36
2023/03/18 08:58:47;;;;;;;22.00;18.58;;;14.20;99.90;;;;;;5080378;28;20044;-36
2023/03/18 09:01:13;;;;;;;25.10;19.38;;;14.00;99.90;;;;;;5060684;28;20038;-36
2023/03/18 09:03:39;;;;;;;28.80;19.02;;;13.90;99.90;;;;;;5071054;28;20032;-36
2023/03/18 09:06:06;;;;;;;23.42;18.50;;;13.90;99.90;;;;;;5063786;28;20029;-36
2023/03/18 09:08:32;;;;;;;24.23;18.42;;;14.00;99.90;;;;;;5060833;28;20045;-36
2023/03/18 09:10:58;;;;;;;24.63;19.15;;;14.20;99.90;;;;;;5067248;28;20064;-36
2023/03/18 09:13:24;;;;;;;23.17;18.70;;;14.10;99.90;;;;;;5069739;28;20028;-36
2023/03/18 09:15:50;;;;;;;23.45;18.42;;;14.10;99.90;;;;;;5059961;28;20559;-36
2023/03/18 09:18:17;;;;;;;23.42;18.55;;;14.20;99.90;;;;;;5072208;28;20037;-36
2023/03/18 09:20:44;;;;;;;24.88;19.02;;;14.20;99.90;;;;;;5069689;28;20466;-36
2023/03/18 09:23:11;;;;;;;23.30;18.73;;;14.60;99.90;;;;;;5061675;28;20044;-36
2023/03/18 09:25:38;;;;;;;24.50;19.48;;;15.10;99.90;;;;;;5075768;28;20040;-37
2023/03/18 09:28:07;;;;;;;21.23;18.58;;;15.30;99.90;;;;;;5069878;28;20131;-36
2023/03/18 09:30:36;;;;;;;25.60;19.13;;;15.50;99.90;;;;;;5075128;28;20041;-36
2023/03/18 09:33:04;;;;;;;22.95;18.90;;;15.50;99.90;;;;;;5053228;28;20047;-36
2023/03/18 09:35:31;;;;;;;21.88;19.52;;;15.70;99.90;;;;;;5072340;28;20430;-36
2023/03/18 09:37:56;;;;;;;20.00;17.63;;;16.20;99.90;;;;;;5066350;28;20044;-37
2023/03/18 09:40:35;;;;;;;20.70;17.67;;;16.70;99.90;;;;;;5070321;28;20319;-37
2023/03/18 09:43:28;;;;;;;22.00;17.95;;;16.80;99.90;;;;;;5062762;28;20090;-37
2023/03/18 09:46:07;;;;;;;19.70;17.65;;;17.10;99.90;;;;;;5063058;28;20112;-37
2023/03/18 09:48:40;;;;;;;18.17;16.35;;;17.50;99.90;;;;;;5066654;28;20048;-37
2023/03/18 09:51:09;;;;;;;;;;;17.70;99.90;;;;;;5072538;28;20044;-37
2023/03/18 09:53:57;;;;;;;20.33;17.98;;;17.40;99.90;;;;;;5082182;28;19931;-37
2023/03/18 09:56:27;;;;;;;22.20;19.30;;;17.30;99.90;;;;;;5069999;28;20623;-37
2023/03/18 09:59:20;;;;;;;17.80;15.93;;;17.00;99.90;;;;;;5066542;28;20048;-37
2023/03/18 10:01:49;;;;;;;18.45;16.10;;;16.60;99.90;;;;;;5077369;28;20082;-37
2023/03/18 10:04:27;;;;;;;17.52;15.27;;;16.10;99.90;;;;;;5059041;28;20115;-36
2023/03/18 10:07:10;;;;;;;16.90;15.10;;;15.80;99.90;;;;;;5061407;28;20042;-36
2023/03/18 10:09:44;;;;;;;16.02;14.38;;;15.60;99.90;;;;;;5078872;28;20394;-37
2023/03/18 10:12:34;;;;;;;15.18;13.40;;;16.00;99.90;;;;;;5063818;28;20043;-36
2023/03/18 10:15:38;;;;;;;14.93;13.52;;;16.60;99.90;;;;;;5070664;28;20047;-37
2023/03/18 10:18:26;;;;;;;15.45;12.77;;;17.40;99.90;;;;;;5045181;28;20533;-37
2023/03/18 10:21:11;;;;;;;13.18;11.88;;;18.40;99.90;;;;;;5071805;28;20036;-37
2023/03/18 10:24:07;;;;;;;14.55;12.40;;;18.40;99.90;;;;;;5073996;28;20036;-37
2023/03/18 10:26:46;;;;;;;11.98;10.88;;;18.40;99.90;;;;;;5065034;28;20040;-37
2023/03/18 10:29:50;;;;;;;11.90;10.75;;;18.50;99.90;;;;;;5065954;28;20051;-38
2023/03/18 10:32:37;;;;;;;11.60;10.45;;;18.80;99.90;;;;;;5040342;28;20048;-37
2023/03/18 10:35:03;;;;;;;11.55;10.32;;;19.50;99.90;;;;;;5067329;28;20040;-37
2023/03/18 10:37:37;;;;;;;10.63;9.23;;;20.00;99.90;;;;;;5079132;28;20043;-37
2023/03/18 10:40:16;;;;;;;10.10;9.02;;;20.20;99.90;;;;;;5057879;28;20486;-37
2023/03/18 10:42:42;;;;;;;9.98;8.98;;;20.20;99.90;;;;;;5052293;28;20051;-33
2023/03/18 10:45:23;;;;;;;10.38;9.40;;;20.10;99.90;;;;;;5051750;28;20068;-37
2023/03/18 10:48:24;;;;;;;11.02;10.10;;;19.60;99.90;;;;;;5052160;28;20390;-37
2023/03/18 10:51:18;;;;;;;9.98;8.98;;;18.80;99.90;;;;;;5054198;28;20097;-36
2023/03/18 10:54:06;;;;;;;10.63;8.52;;;18.30;99.90;;;;;;5067079;28;20083;-36
2023/03/18 10:56:34;;;;;;;9.05;8.15;;;18.40;99.90;;;;;;5076446;28;20436;-36
2023/03/18 10:59:00;;;;;;;8.68;7.75;;;18.40;99.90;;;;;;5071619;28;20127;-36
2023/03/18 11:01:27;;;;;;;8.32;7.45;;;18.20;99.90;;;;;;5086495;28;20484;-36
2023/03/18 11:04:05;;;;;;;8.98;7.68;;;18.00;99.90;;;;;;5088674;28;20043;-36
2023/03/18 11:06:52;;;;;;;10.88;9.52;;;18.00;99.90;;;;;;5074520;28;20037;-36
2023/03/18 11:09:32;;;;;;;10.63;9.52;;;18.20;99.90;;;;;;5066516;28;20487;-36
2023/03/18 11:12:12;;;;;;;9.93;9.00;;;18.90;99.90;;;;;;5062182;28;20044;-36
2023/03/18 11:14:39;;;;;;;9.82;8.82;;;20.00;99.90;;;;;;5064743;28;20390;-37
2023/03/18 11:17:19;;;;;;;10.45;9.43;;;21.00;99.90;;;;;;5070218;28;20045;-33
2023/03/18 11:19:47;;;;;;;9.13;8.32;;;21.20;99.90;;;;;;5071358;28;20068;-35
2023/03/18 11:22:24;;;;;;;11.02;10.02;;;21.20;99.90;;;;;;5071509;28;20040;-34
2023/03/18 11:25:13;;;;;;;10.52;9.55;;;20.80;99.90;;;;;;5072274;28;20066;-34
2023/03/18 11:27:48;;;;;;;10.38;9.45;;;20.90;81.00;;;;;;5056709;28;20044;-34
2023/03/18 11:30:22;;;;;;;11.38;10.13;;;20.30;98.90;;;;;;5052348;28;20049;-34
2023/03/18 11:33:03;;;;;;;11.40;10.30;;;20.40;99.90;;;;;;5051269;28;20069;-35
2023/03/18 11:35:39;;;;;;;12.98;10.23;;;20.60;99.90;;;;;;5051535;28;20037;-34
2023/03/18 11:38:06;;;;;;;11.98;10.88;;;21.00;92.60;;;;;;5067174;28;20028;-33
2023/03/18 11:40:32;;;;;;;12.48;11.38;;;20.90;99.90;;;;;;5068192;28;20047;-37
2023/03/18 11:43:01;;;;;;;14.07;11.43;;;20.70;99.90;;;;;;5072071;28;20525;-34
2023/03/18 11:45:58;;;;;;;14.98;12.77;;;20.50;99.90;;;;;;5074539;28;20051;-37
2023/03/18 11:48:38;;;;;;;12.82;11.00;;;21.40;89.80;;;;;;5065988;28;20548;-37
2023/03/18 11:51:10;;;;;;;12.30;11.10;;;22.10;86.40;;;;;;5075230;28;20041;-37
2023/03/18 11:54:01;;;;;;;11.57;10.30;;;23.10;88.90;;;;;;5067693;28;20036;-37
2023/03/18 11:56:38;;;;;;;11.15;9.88;;;23.50;68.20;;;;;;5060038;28;20037;-35
2023/03/18 11:59:12;;;;;;;10.85;9.82;;;24.20;65.90;;;;;;5064515;28;20351;-34
2023/03/18 12:01:38;;;;;;;10.23;8.95;;;23.70;61.50;;;;;;5057417;28;20094;-34
2023/03/18 12:04:38;;;;;;;10.90;9.90;;;23.20;61.60;;;;;;5068654;28;20040;-35
2023/03/18 12:07:09;;;;;;;10.32;9.43;;;22.80;62.50;;;;;;5063321;28;20041;-35
2023/03/18 12:09:55;;;;;;;10.40;9.40;;;23.60;66.70;;;;;;5066841;28;20052;-35
2023/03/18 12:12:44;;;;;;;11.77;10.68;;;23.10;59.50;;;;;;5081564;28;20036;-36
2023/03/18 12:15:35;;;;;;;11.00;9.93;;;23.00;60.60;;;;;;5060539;28;20037;-36
2023/03/18 12:18:13;;;;;;;10.75;9.75;;;22.90;60.20;;;;;;5065828;28;20079;-36
2023/03/18 12:20:49;;;;;;;10.98;9.90;;;22.90;60.00;;;;;;5051322;28;20450;-35
2023/03/18 12:23:18;;;;;;;10.43;9.45;;;22.80;60.30;;;;;;5069887;28;20045;-36
2023/03/18 12:26:02;;;;;;;11.43;10.30;;;22.70;60.10;;;;;;5063028;28;20490;-36
2023/03/18 12:28:27;;;;;;;11.70;10.70;;;22.10;59.50;;;;;;5065595;28;20051;-35
2023/03/18 12:31:05;;;;;;;12.13;10.93;;;21.30;60.90;;;;;;5087185;28;20051;-36
2023/03/18 12:33:34;;;;;;;11.52;10.52;;;20.90;62.60;;;;;;5074782;28;20104;-36
2023/03/18 12:36:11;;;;;;;12.60;11.18;;;20.30;65.40;;;;;;5070894;28;20037;-37
2023/03/18 12:38:49;;;;;;;11.73;10.63;;;20.10;73.40;;;;;;5069546;28;20576;-36
2023/03/18 12:41:20;;;;;;;11.93;10.82;;;19.90;90.40;;;;;;5076816;28;20040;-37
2023/03/18 12:44:07;;;;;;;13.20;11.80;;;19.60;95.70;;;;;;5075350;28;20029;-34
2023/03/18 12:46:42;;;;;;;13.80;12.50;;;19.50;99.90;;;;;;5081385;28;20451;-35
2023/03/18 12:49:21;;;;;;;12.43;11.23;;;19.30;99.90;;;;;;5063134;28;20386;-36